sensor_id;sensor_type;location;lat;lon;timestamp;P1;durP1;ratioP1;P2;durP2;ratioP2
22270;SDS011;11304;53.520;10.104;2022-08-21T00:02:19;3.45;;;2.17;;
22270;SDS011;11304;53.520;10.104;2022-08-21T00:04:46;3.40;;;1.63;;
22270;SDS011;11304;53.520;10.104;2022-08-21T00:07:12;4.82;;;1.30;;
22270;SDS011;11304;53.520;10.104;2022-08-21T00:09:38;3.85;;;2.13;;
22270;SDS011;11304;53.520;10.104;2022-08-21T00:12:05;5.25;;;2.38;;
22270;SDS011;11304;53.520;10.104;2022-08-21T00:14:32;5.60;;;2.47;;
22270;SDS011;11304;53.520;10.104;2022-08-21T00:16:58;4.22;;;2.30;;
22270;SDS011;11304;53.520;10.104;2022-08-21T00:19:24;2.83;;;1.75;;
22270;SDS011;11304;53.520;10.104;2022-08-21T00:21:52;2.35;;;1.30;;
22270;SDS011;11304;53.520;10.104;2022-08-21T00:24:20;2.95;;;1.50;;
22270;SDS011;11304;53.520;10.104;2022-08-21T00:26:46;3.55;;;1.75;;
22270;SDS011;11304;53.520;10.104;2022-08-21T00:29:12;3.03;;;1.75;;
22270;SDS011;11304;53.520;10.104;2022-08-21T00:31:39;3.17;;;1.65;;
22270;SDS011;11304;53.520;10.104;2022-08-21T00:34:05;2.63;;;1.45;;
22270;SDS011;11304;53.520;10.104;2022-08-21T00:36:32;3.72;;;2.30;;
22270;SDS011;11304;53.520;10.104;2022-08-21T00:38:58;6.68;;;2.78;;
22270;SDS011;11304;53.520;10.104;2022-08-21T00:41:24;3.60;;;2.60;;
22270;SDS011;11304;53.520;10.104;2022-08-21T00:43:52;3.92;;;2.22;;
22270;SDS011;11304;53.520;10.104;2022-08-21T00:46:18;6.38;;;1.88;;
22270;SDS011;11304;53.520;10.104;2022-08-21T00:48:44;6.78;;;2.42;;
22270;SDS011;11304;53.520;10.104;2022-08-21T00:51:13;6.95;;;3.00;;
22270;SDS011;11304;53.520;10.104;2022-08-21T00:53:43;7.63;;;3.33;;
22270;SDS011;11304;53.520;10.104;2022-08-21T00:56:11;5.05;;;3.30;;
22270;SDS011;11304;53.520;10.104;2022-08-21T00:58:38;4.63;;;2.53;;
22270;SDS011;11304;53.520;10.104;2022-08-21T01:01:06;5.20;;;2.90;;
22270;SDS011;11304;53.520;10.104;2022-08-21T01:03:33;4.28;;;2.92;;
22270;SDS011;11304;53.520;10.104;2022-08-21T01:05:59;4.38;;;2.65;;
22270;SDS011;11304;53.520;10.104;2022-08-21T01:08:25;4.07;;;2.30;;
22270;SDS011;11304;53.520;10.104;2022-08-21T01:10:54;3.53;;;2.17;;
22270;SDS011;11304;53.520;10.104;2022-08-21T01:13:20;6.78;;;3.17;;
22270;SDS011;11304;53.520;10.104;2022-08-21T01:15:48;2.97;;;1.80;;
22270;SDS011;11304;53.520;10.104;2022-08-21T01:23:11;4.82;;;2.60;;
22270;SDS011;11304;53.520;10.104;2022-08-21T01:25:37;3.72;;;2.42;;
22270;SDS011;11304;53.520;10.104;2022-08-21T01:28:09;4.93;;;2.70;;
22270;SDS011;11304;53.520;10.104;2022-08-21T01:30:37;3.67;;;2.30;;
22270;SDS011;11304;53.520;10.104;2022-08-21T01:33:03;4.03;;;2.40;;
22270;SDS011;11304;53.520;10.104;2022-08-21T01:35:29;4.45;;;2.80;;
22270;SDS011;11304;53.520;10.104;2022-08-21T01:37:56;4.47;;;2.30;;
22270;SDS011;11304;53.520;10.104;2022-08-21T01:40:22;4.05;;;2.53;;
22270;SDS011;11304;53.520;10.104;2022-08-21T01:42:48;3.13;;;2.20;;
22270;SDS011;11304;53.520;10.104;2022-08-21T01:45:15;2.47;;;1.60;;
22270;SDS011;11304;53.520;10.104;2022-08-21T01:47:41;5.38;;;3.05;;
22270;SDS011;11304;53.520;10.104;2022-08-21T01:50:09;6.97;;;3.28;;
22270;SDS011;11304;53.520;10.104;2022-08-21T01:52:36;6.32;;;3.38;;
22270;SDS011;11304;53.520;10.104;2022-08-21T01:55:02;5.60;;;3.80;;
22270;SDS011;11304;53.520;10.104;2022-08-21T01:57:29;6.65;;;3.90;;
22270;SDS011;11304;53.520;10.104;2022-08-21T01:59:55;6.97;;;4.03;;
22270;SDS011;11304;53.520;10.104;2022-08-21T02:02:21;7.28;;;3.00;;
22270;SDS011;11304;53.520;10.104;2022-08-21T02:04:47;4.20;;;2.50;;
22270;SDS011;11304;53.520;10.104;2022-08-21T02:07:13;2.83;;;2.20;;
22270;SDS011;11304;53.520;10.104;2022-08-21T02:09:40;3.88;;;3.03;;
22270;SDS011;11304;53.520;10.104;2022-08-21T02:12:07;3.95;;;2.80;;
22270;SDS011;11304;53.520;10.104;2022-08-21T02:14:34;4.28;;;2.70;;
22270;SDS011;11304;53.520;10.104;2022-08-21T02:17:00;5.80;;;3.42;;
22270;SDS011;11304;53.520;10.104;2022-08-21T02:19:27;4.88;;;3.30;;
22270;SDS011;11304;53.520;10.104;2022-08-21T02:21:53;7.18;;;3.70;;
22270;SDS011;11304;53.520;10.104;2022-08-21T02:24:19;5.32;;;4.00;;
22270;SDS011;11304;53.520;10.104;2022-08-21T02:26:45;9.25;;;5.03;;
22270;SDS011;11304;53.520;10.104;2022-08-21T02:29:11;9.50;;;4.72;;
22270;SDS011;11304;53.520;10.104;2022-08-21T02:31:37;8.20;;;5.07;;
22270;SDS011;11304;53.520;10.104;2022-08-21T02:34:03;5.18;;;3.50;;
22270;SDS011;11304;53.520;10.104;2022-08-21T02:36:30;6.35;;;3.78;;
22270;SDS011;11304;53.520;10.104;2022-08-21T02:38:56;6.35;;;3.97;;
22270;SDS011;11304;53.520;10.104;2022-08-21T02:41:22;4.38;;;3.63;;
22270;SDS011;11304;53.520;10.104;2022-08-21T02:43:48;7.00;;;4.30;;
22270;SDS011;11304;53.520;10.104;2022-08-21T02:46:15;4.07;;;3.50;;
22270;SDS011;11304;53.520;10.104;2022-08-21T02:48:42;4.53;;;3.40;;
22270;SDS011;11304;53.520;10.104;2022-08-21T02:51:11;6.88;;;4.07;;
22270;SDS011;11304;53.520;10.104;2022-08-21T02:56:05;5.82;;;3.92;;
22270;SDS011;11304;53.520;10.104;2022-08-21T02:58:34;6.03;;;4.50;;
22270;SDS011;11304;53.520;10.104;2022-08-21T03:01:02;7.78;;;4.90;;
22270;SDS011;11304;53.520;10.104;2022-08-21T03:03:29;6.00;;;5.05;;
22270;SDS011;11304;53.520;10.104;2022-08-21T03:05:55;6.95;;;4.93;;
22270;SDS011;11304;53.520;10.104;2022-08-21T03:08:22;6.18;;;4.47;;
22270;SDS011;11304;53.520;10.104;2022-08-21T03:10:50;6.40;;;4.30;;
22270;SDS011;11304;53.520;10.104;2022-08-21T03:13:17;6.78;;;4.07;;
22270;SDS011;11304;53.520;10.104;2022-08-21T03:15:45;4.18;;;3.78;;
22270;SDS011;11304;53.520;10.104;2022-08-21T03:18:11;5.50;;;3.70;;
22270;SDS011;11304;53.520;10.104;2022-08-21T03:20:39;6.60;;;4.05;;
22270;SDS011;11304;53.520;10.104;2022-08-21T03:23:05;6.05;;;4.00;;
22270;SDS011;11304;53.520;10.104;2022-08-21T03:25:32;6.10;;;3.67;;
22270;SDS011;11304;53.520;10.104;2022-08-21T03:27:59;5.30;;;3.63;;
22270;SDS011;11304;53.520;10.104;2022-08-21T03:30:26;6.57;;;3.92;;
22270;SDS011;11304;53.520;10.104;2022-08-21T03:32:52;5.13;;;2.88;;
22270;SDS011;11304;53.520;10.104;2022-08-21T03:35:19;4.93;;;3.15;;
22270;SDS011;11304;53.520;10.104;2022-08-21T03:37:45;5.07;;;3.38;;
22270;SDS011;11304;53.520;10.104;2022-08-21T03:40:13;5.80;;;3.80;;
22270;SDS011;11304;53.520;10.104;2022-08-21T03:42:39;5.78;;;3.80;;
22270;SDS011;11304;53.520;10.104;2022-08-21T03:45:06;4.22;;;3.13;;
22270;SDS011;11304;53.520;10.104;2022-08-21T03:47:32;5.15;;;3.08;;
22270;SDS011;11304;53.520;10.104;2022-08-21T03:49:59;6.72;;;4.18;;
22270;SDS011;11304;53.520;10.104;2022-08-21T03:52:25;6.55;;;3.35;;
22270;SDS011;11304;53.520;10.104;2022-08-21T03:54:51;5.45;;;3.70;;
22270;SDS011;11304;53.520;10.104;2022-08-21T03:57:17;6.40;;;4.20;;
22270;SDS011;11304;53.520;10.104;2022-08-21T03:59:43;4.93;;;3.53;;
22270;SDS011;11304;53.520;10.104;2022-08-21T04:02:10;5.40;;;3.83;;
22270;SDS011;11304;53.520;10.104;2022-08-21T04:04:36;5.20;;;3.67;;
22270;SDS011;11304;53.520;10.104;2022-08-21T04:07:03;6.05;;;3.85;;
22270;SDS011;11304;53.520;10.104;2022-08-21T04:09:29;5.05;;;3.42;;
22270;SDS011;11304;53.520;10.104;2022-08-21T04:11:55;5.25;;;3.67;;
22270;SDS011;11304;53.520;10.104;2022-08-21T04:14:21;7.32;;;3.65;;
22270;SDS011;11304;53.520;10.104;2022-08-21T04:16:47;5.30;;;4.03;;
22270;SDS011;11304;53.520;10.104;2022-08-21T04:19:14;6.63;;;4.50;;
22270;SDS011;11304;53.520;10.104;2022-08-21T04:21:41;6.10;;;4.07;;
22270;SDS011;11304;53.520;10.104;2022-08-21T04:24:08;5.22;;;3.97;;
22270;SDS011;11304;53.520;10.104;2022-08-21T04:26:35;4.35;;;3.30;;
22270;SDS011;11304;53.520;10.104;2022-08-21T04:29:02;7.25;;;3.97;;
22270;SDS011;11304;53.520;10.104;2022-08-21T04:31:29;7.85;;;4.45;;
22270;SDS011;11304;53.520;10.104;2022-08-21T04:33:55;4.85;;;3.88;;
22270;SDS011;11304;53.520;10.104;2022-08-21T04:36:22;5.97;;;4.00;;
22270;SDS011;11304;53.520;10.104;2022-08-21T04:38:48;8.98;;;4.25;;
22270;SDS011;11304;53.520;10.104;2022-08-21T04:41:14;8.70;;;3.95;;
22270;SDS011;11304;53.520;10.104;2022-08-21T04:43:40;7.72;;;4.82;;
22270;SDS011;11304;53.520;10.104;2022-08-21T04:46:07;9.50;;;5.25;;
22270;SDS011;11304;53.520;10.104;2022-08-21T04:48:34;7.95;;;5.05;;
22270;SDS011;11304;53.520;10.104;2022-08-21T04:53:43;7.65;;;5.72;;
22270;SDS011;11304;53.520;10.104;2022-08-21T04:56:12;8.85;;;5.45;;
22270;SDS011;11304;53.520;10.104;2022-08-21T04:58:39;8.75;;;5.47;;
22270;SDS011;11304;53.520;10.104;2022-08-21T05:01:07;10.40;;;5.40;;
22270;SDS011;11304;53.520;10.104;2022-08-21T05:03:34;8.52;;;5.43;;
22270;SDS011;11304;53.520;10.104;2022-08-21T05:06:03;8.20;;;5.25;;
22270;SDS011;11304;53.520;10.104;2022-08-21T05:08:30;6.45;;;5.03;;
22270;SDS011;11304;53.520;10.104;2022-08-21T05:10:57;7.47;;;5.22;;
22270;SDS011;11304;53.520;10.104;2022-08-21T05:13:23;7.35;;;4.60;;
22270;SDS011;11304;53.520;10.104;2022-08-21T05:15:49;8.68;;;4.95;;
22270;SDS011;11304;53.520;10.104;2022-08-21T05:18:15;6.63;;;4.45;;
22270;SDS011;11304;53.520;10.104;2022-08-21T05:20:42;8.80;;;5.05;;
22270;SDS011;11304;53.520;10.104;2022-08-21T05:23:10;6.03;;;4.90;;
22270;SDS011;11304;53.520;10.104;2022-08-21T05:25:37;7.15;;;4.90;;
22270;SDS011;11304;53.520;10.104;2022-08-21T05:28:04;5.50;;;4.68;;
22270;SDS011;11304;53.520;10.104;2022-08-21T05:30:31;7.22;;;4.78;;
22270;SDS011;11304;53.520;10.104;2022-08-21T05:33:01;6.03;;;4.75;;
22270;SDS011;11304;53.520;10.104;2022-08-21T05:35:28;7.63;;;4.70;;
22270;SDS011;11304;53.520;10.104;2022-08-21T05:37:54;8.00;;;4.85;;
22270;SDS011;11304;53.520;10.104;2022-08-21T05:40:20;8.93;;;4.68;;
22270;SDS011;11304;53.520;10.104;2022-08-21T05:42:47;9.52;;;4.63;;
22270;SDS011;11304;53.520;10.104;2022-08-21T05:45:13;5.97;;;4.35;;
22270;SDS011;11304;53.520;10.104;2022-08-21T05:47:39;8.90;;;4.80;;
22270;SDS011;11304;53.520;10.104;2022-08-21T05:50:05;7.88;;;4.40;;
22270;SDS011;11304;53.520;10.104;2022-08-21T05:52:31;8.38;;;4.25;;
22270;SDS011;11304;53.520;10.104;2022-08-21T05:54:58;8.40;;;4.93;;
22270;SDS011;11304;53.520;10.104;2022-08-21T05:57:24;8.40;;;4.50;;
22270;SDS011;11304;53.520;10.104;2022-08-21T05:59:51;7.15;;;5.13;;
22270;SDS011;11304;53.520;10.104;2022-08-21T06:02:18;7.28;;;4.82;;
22270;SDS011;11304;53.520;10.104;2022-08-21T06:04:44;8.02;;;5.30;;
22270;SDS011;11304;53.520;10.104;2022-08-21T06:07:10;9.50;;;5.15;;
22270;SDS011;11304;53.520;10.104;2022-08-21T06:09:37;7.97;;;4.75;;
22270;SDS011;11304;53.520;10.104;2022-08-21T06:12:07;8.63;;;5.20;;
22270;SDS011;11304;53.520;10.104;2022-08-21T06:14:33;9.27;;;5.47;;
22270;SDS011;11304;53.520;10.104;2022-08-21T06:17:06;9.93;;;5.43;;
22270;SDS011;11304;53.520;10.104;2022-08-21T06:19:33;9.80;;;5.25;;
22270;SDS011;11304;53.520;10.104;2022-08-21T06:21:59;5.97;;;4.60;;
22270;SDS011;11304;53.520;10.104;2022-08-21T06:24:25;9.07;;;4.90;;
22270;SDS011;11304;53.520;10.104;2022-08-21T06:26:52;9.27;;;5.07;;
22270;SDS011;11304;53.520;10.104;2022-08-21T06:29:18;7.82;;;4.47;;
22270;SDS011;11304;53.520;10.104;2022-08-21T06:31:45;6.88;;;4.10;;
22270;SDS011;11304;53.520;10.104;2022-08-21T06:34:11;8.48;;;4.18;;
22270;SDS011;11304;53.520;10.104;2022-08-21T06:36:38;8.27;;;5.15;;
22270;SDS011;11304;53.520;10.104;2022-08-21T06:39:04;6.78;;;4.53;;
22270;SDS011;11304;53.520;10.104;2022-08-21T06:41:30;7.03;;;4.35;;
22270;SDS011;11304;53.520;10.104;2022-08-21T06:43:56;7.13;;;4.80;;
22270;SDS011;11304;53.520;10.104;2022-08-21T06:46:26;10.98;;;4.68;;
22270;SDS011;11304;53.520;10.104;2022-08-21T06:48:52;9.52;;;4.70;;
22270;SDS011;11304;53.520;10.104;2022-08-21T06:51:19;8.77;;;4.13;;
22270;SDS011;11304;53.520;10.104;2022-08-21T06:53:45;7.45;;;4.03;;
22270;SDS011;11304;53.520;10.104;2022-08-21T06:56:11;7.30;;;4.05;;
22270;SDS011;11304;53.520;10.104;2022-08-21T06:58:37;6.82;;;3.78;;
22270;SDS011;11304;53.520;10.104;2022-08-21T07:01:04;8.00;;;4.18;;
22270;SDS011;11304;53.520;10.104;2022-08-21T07:03:31;6.10;;;3.92;;
22270;SDS011;11304;53.520;10.104;2022-08-21T07:05:58;6.65;;;3.50;;
22270;SDS011;11304;53.520;10.104;2022-08-21T07:08:25;8.63;;;3.72;;
22270;SDS011;11304;53.520;10.104;2022-08-21T07:10:52;6.10;;;3.58;;
22270;SDS011;11304;53.520;10.104;2022-08-21T07:13:18;9.38;;;3.38;;
22270;SDS011;11304;53.520;10.104;2022-08-21T07:15:45;5.88;;;3.05;;
22270;SDS011;11304;53.520;10.104;2022-08-21T07:18:11;9.23;;;3.10;;
22270;SDS011;11304;53.520;10.104;2022-08-21T07:20:38;10.50;;;3.38;;
22270;SDS011;11304;53.520;10.104;2022-08-21T07:23:06;8.80;;;3.20;;
22270;SDS011;11304;53.520;10.104;2022-08-21T07:25:33;5.57;;;2.42;;
22270;SDS011;11304;53.520;10.104;2022-08-21T07:27:59;7.10;;;2.80;;
22270;SDS011;11304;53.520;10.104;2022-08-21T07:30:26;7.68;;;2.40;;
22270;SDS011;11304;53.520;10.104;2022-08-21T07:32:52;7.63;;;2.72;;
22270;SDS011;11304;53.520;10.104;2022-08-21T07:35:21;5.93;;;2.35;;
22270;SDS011;11304;53.520;10.104;2022-08-21T07:37:48;6.10;;;2.05;;
22270;SDS011;11304;53.520;10.104;2022-08-21T07:40:15;7.38;;;2.10;;
22270;SDS011;11304;53.520;10.104;2022-08-21T07:42:43;5.72;;;2.50;;
22270;SDS011;11304;53.520;10.104;2022-08-21T07:45:10;6.72;;;2.05;;
22270;SDS011;11304;53.520;10.104;2022-08-21T07:47:36;4.30;;;1.80;;
22270;SDS011;11304;53.520;10.104;2022-08-21T07:50:03;5.13;;;1.88;;
22270;SDS011;11304;53.520;10.104;2022-08-21T07:52:29;6.38;;;1.90;;
22270;SDS011;11304;53.520;10.104;2022-08-21T07:54:55;6.78;;;2.20;;
22270;SDS011;11304;53.520;10.104;2022-08-21T07:57:22;5.07;;;1.73;;
22270;SDS011;11304;53.520;10.104;2022-08-21T07:59:48;9.52;;;2.50;;
22270;SDS011;11304;53.520;10.104;2022-08-21T08:02:21;5.38;;;1.85;;
22270;SDS011;11304;53.520;10.104;2022-08-21T08:04:48;5.97;;;2.17;;
22270;SDS011;11304;53.520;10.104;2022-08-21T08:07:14;6.15;;;1.95;;
22270;SDS011;11304;53.520;10.104;2022-08-21T08:09:40;3.80;;;1.70;;
22270;SDS011;11304;53.520;10.104;2022-08-21T08:12:06;7.22;;;2.00;;
22270;SDS011;11304;53.520;10.104;2022-08-21T08:14:33;5.28;;;1.70;;
22270;SDS011;11304;53.520;10.104;2022-08-21T08:16:59;3.63;;;1.58;;
22270;SDS011;11304;53.520;10.104;2022-08-21T08:19:27;5.33;;;2.20;;
22270;SDS011;11304;53.520;10.104;2022-08-21T08:21:53;4.85;;;1.80;;
22270;SDS011;11304;53.520;10.104;2022-08-21T08:24:20;4.65;;;1.60;;
22270;SDS011;11304;53.520;10.104;2022-08-21T08:26:46;3.60;;;1.58;;
22270;SDS011;11304;53.520;10.104;2022-08-21T08:29:12;5.60;;;1.90;;
22270;SDS011;11304;53.520;10.104;2022-08-21T08:31:39;5.43;;;1.80;;
22270;SDS011;11304;53.520;10.104;2022-08-21T08:34:05;6.40;;;2.08;;
22270;SDS011;11304;53.520;10.104;2022-08-21T08:36:33;3.80;;;1.60;;
22270;SDS011;11304;53.520;10.104;2022-08-21T08:39:02;5.23;;;1.67;;
22270;SDS011;11304;53.520;10.104;2022-08-21T08:41:29;6.15;;;1.40;;
22270;SDS011;11304;53.520;10.104;2022-08-21T08:43:58;4.75;;;1.60;;
22270;SDS011;11304;53.520;10.104;2022-08-21T08:46:44;6.95;;;1.85;;
22270;SDS011;11304;53.520;10.104;2022-08-21T08:51:48;5.18;;;1.70;;
22270;SDS011;11304;53.520;10.104;2022-08-21T08:57:17;4.40;;;1.40;;
22270;SDS011;11304;53.520;10.104;2022-08-21T08:59:44;3.70;;;1.40;;
22270;SDS011;11304;53.520;10.104;2022-08-21T09:02:12;4.63;;;1.73;;
22270;SDS011;11304;53.520;10.104;2022-08-21T09:04:39;6.28;;;1.90;;
22270;SDS011;11304;53.520;10.104;2022-08-21T09:12:30;7.13;;;1.70;;
22270;SDS011;11304;53.520;10.104;2022-08-21T09:25:21;7.25;;;2.00;;
22270;SDS011;11304;53.520;10.104;2022-08-21T09:27:48;8.18;;;1.60;;
22270;SDS011;11304;53.520;10.104;2022-08-21T09:30:16;6.75;;;2.05;;
22270;SDS011;11304;53.520;10.104;2022-08-21T09:32:42;6.07;;;2.00;;
22270;SDS011;11304;53.520;10.104;2022-08-21T09:35:15;7.70;;;1.92;;
22270;SDS011;11304;53.520;10.104;2022-08-21T09:37:47;5.93;;;1.90;;
22270;SDS011;11304;53.520;10.104;2022-08-21T09:40:15;6.93;;;2.00;;
22270;SDS011;11304;53.520;10.104;2022-08-21T09:42:52;7.07;;;2.17;;
22270;SDS011;11304;53.520;10.104;2022-08-21T09:45:19;7.85;;;1.80;;
22270;SDS011;11304;53.520;10.104;2022-08-21T09:47:45;7.95;;;2.05;;
22270;SDS011;11304;53.520;10.104;2022-08-21T09:50:15;6.40;;;2.00;;
22270;SDS011;11304;53.520;10.104;2022-08-21T09:52:52;7.90;;;2.17;;
22270;SDS011;11304;53.520;10.104;2022-08-21T09:55:25;8.18;;;2.25;;
22270;SDS011;11304;53.520;10.104;2022-08-21T09:58:11;8.18;;;2.40;;
22270;SDS011;11304;53.520;10.104;2022-08-21T10:00:37;8.07;;;2.30;;
22270;SDS011;11304;53.520;10.104;2022-08-21T10:03:07;8.57;;;2.40;;
22270;SDS011;11304;53.520;10.104;2022-08-21T10:05:33;7.63;;;2.25;;
22270;SDS011;11304;53.520;10.104;2022-08-21T10:08:00;8.30;;;2.20;;
22270;SDS011;11304;53.520;10.104;2022-08-21T10:10:29;8.02;;;2.63;;
22270;SDS011;11304;53.520;10.104;2022-08-21T10:12:59;15.07;;;2.78;;
22270;SDS011;11304;53.520;10.104;2022-08-21T10:20:40;7.72;;;2.40;;
22270;SDS011;11304;53.520;10.104;2022-08-21T10:25:40;9.45;;;2.55;;
22270;SDS011;11304;53.520;10.104;2022-08-21T10:28:19;7.82;;;2.33;;
22270;SDS011;11304;53.520;10.104;2022-08-21T10:33:20;7.68;;;2.10;;
22270;SDS011;11304;53.520;10.104;2022-08-21T10:35:51;7.65;;;2.13;;
22270;SDS011;11304;53.520;10.104;2022-08-21T10:43:35;5.38;;;1.80;;
22270;SDS011;11304;53.520;10.104;2022-08-21T10:51:07;7.30;;;2.30;;
22270;SDS011;11304;53.520;10.104;2022-08-21T10:56:02;7.15;;;2.13;;
22270;SDS011;11304;53.520;10.104;2022-08-21T10:58:38;9.82;;;2.55;;
22270;SDS011;11304;53.520;10.104;2022-08-21T11:01:11;9.00;;;2.22;;
22270;SDS011;11304;53.520;10.104;2022-08-21T11:03:42;10.65;;;2.10;;
22270;SDS011;11304;53.520;10.104;2022-08-21T11:06:17;6.25;;;1.90;;
22270;SDS011;11304;53.520;10.104;2022-08-21T11:08:45;8.65;;;1.90;;
22270;SDS011;11304;53.520;10.104;2022-08-21T11:13:51;6.10;;;2.00;;
22270;SDS011;11304;53.520;10.104;2022-08-21T11:16:29;3.60;;;1.73;;
22270;SDS011;11304;53.520;10.104;2022-08-21T11:19:02;4.38;;;1.65;;
22270;SDS011;11304;53.520;10.104;2022-08-21T11:26:34;4.55;;;1.80;;
22270;SDS011;11304;53.520;10.104;2022-08-21T11:29:04;3.83;;;1.75;;
22270;SDS011;11304;53.520;10.104;2022-08-21T11:34:09;3.65;;;1.60;;
22270;SDS011;11304;53.520;10.104;2022-08-21T11:36:42;5.70;;;2.30;;
22270;SDS011;11304;53.520;10.104;2022-08-21T11:41:52;4.95;;;1.90;;
22270;SDS011;11304;53.520;10.104;2022-08-21T11:52:10;7.05;;;1.77;;
22270;SDS011;11304;53.520;10.104;2022-08-21T11:54:40;6.00;;;1.92;;
22270;SDS011;11304;53.520;10.104;2022-08-21T11:57:25;5.00;;;1.60;;
22270;SDS011;11304;53.520;10.104;2022-08-21T12:00:12;4.40;;;1.55;;
22270;SDS011;11304;53.520;10.104;2022-08-21T12:02:42;5.10;;;1.85;;
22270;SDS011;11304;53.520;10.104;2022-08-21T12:05:09;3.63;;;1.88;;
22270;SDS011;11304;53.520;10.104;2022-08-21T12:07:42;5.53;;;1.75;;
22270;SDS011;11304;53.520;10.104;2022-08-21T12:10:14;4.35;;;1.83;;
22270;SDS011;11304;53.520;10.104;2022-08-21T12:12:42;6.88;;;1.92;;
22270;SDS011;11304;53.520;10.104;2022-08-21T12:15:16;5.68;;;1.70;;
22270;SDS011;11304;53.520;10.104;2022-08-21T12:20:35;4.97;;;1.70;;
22270;SDS011;11304;53.520;10.104;2022-08-21T12:23:03;3.25;;;1.58;;
22270;SDS011;11304;53.520;10.104;2022-08-21T12:25:37;4.55;;;1.60;;
22270;SDS011;11304;53.520;10.104;2022-08-21T12:28:10;6.47;;;1.70;;
22270;SDS011;11304;53.520;10.104;2022-08-21T12:30:39;5.63;;;1.55;;
22270;SDS011;11304;53.520;10.104;2022-08-21T12:35:52;4.60;;;1.77;;
22270;SDS011;11304;53.520;10.104;2022-08-21T12:38:26;6.03;;;1.60;;
22270;SDS011;11304;53.520;10.104;2022-08-21T12:40:54;3.80;;;1.40;;
22270;SDS011;11304;53.520;10.104;2022-08-21T12:43:24;6.90;;;1.75;;
22270;SDS011;11304;53.520;10.104;2022-08-21T12:45:51;4.25;;;1.90;;
22270;SDS011;11304;53.520;10.104;2022-08-21T12:48:20;8.63;;;2.10;;
22270;SDS011;11304;53.520;10.104;2022-08-21T12:50:51;5.22;;;1.67;;
22270;SDS011;11304;53.520;10.104;2022-08-21T12:55:50;7.40;;;1.63;;
22270;SDS011;11304;53.520;10.104;2022-08-21T12:58:17;4.28;;;1.58;;
22270;SDS011;11304;53.520;10.104;2022-08-21T13:00:47;3.60;;;1.17;;
22270;SDS011;11304;53.520;10.104;2022-08-21T13:03:14;3.45;;;1.27;;
22270;SDS011;11304;53.520;10.104;2022-08-21T13:05:40;4.43;;;1.60;;
22270;SDS011;11304;53.520;10.104;2022-08-21T13:08:07;3.63;;;1.50;;
22270;SDS011;11304;53.520;10.104;2022-08-21T13:10:35;3.22;;;1.50;;
22270;SDS011;11304;53.520;10.104;2022-08-21T13:13:07;4.53;;;1.75;;
22270;SDS011;11304;53.520;10.104;2022-08-21T13:15:37;4.05;;;1.65;;
22270;SDS011;11304;53.520;10.104;2022-08-21T13:18:05;6.07;;;1.83;;
22270;SDS011;11304;53.520;10.104;2022-08-21T13:20:33;7.28;;;1.70;;
22270;SDS011;11304;53.520;10.104;2022-08-21T13:23:00;5.65;;;1.70;;
22270;SDS011;11304;53.520;10.104;2022-08-21T13:25:28;4.18;;;1.50;;
22270;SDS011;11304;53.520;10.104;2022-08-21T13:28:04;2.97;;;1.30;;
22270;SDS011;11304;53.520;10.104;2022-08-21T13:30:30;5.72;;;1.50;;
22270;SDS011;11304;53.520;10.104;2022-08-21T13:32:59;2.95;;;1.33;;
22270;SDS011;11304;53.520;10.104;2022-08-21T13:37:52;4.93;;;1.20;;
22270;SDS011;11304;53.520;10.104;2022-08-21T13:40:30;2.93;;;1.10;;
22270;SDS011;11304;53.520;10.104;2022-08-21T13:42:57;3.40;;;1.20;;
22270;SDS011;11304;53.520;10.104;2022-08-21T13:45:27;4.45;;;1.33;;
22270;SDS011;11304;53.520;10.104;2022-08-21T13:47:53;5.03;;;1.33;;
22270;SDS011;11304;53.520;10.104;2022-08-21T13:50:20;3.40;;;1.50;;
22270;SDS011;11304;53.520;10.104;2022-08-21T13:53:01;3.78;;;1.70;;
22270;SDS011;11304;53.520;10.104;2022-08-21T13:55:42;4.38;;;1.55;;
22270;SDS011;11304;53.520;10.104;2022-08-21T13:58:09;3.67;;;1.27;;
22270;SDS011;11304;53.520;10.104;2022-08-21T14:00:43;5.57;;;1.95;;
22270;SDS011;11304;53.520;10.104;2022-08-21T14:03:09;5.22;;;2.17;;
22270;SDS011;11304;53.520;10.104;2022-08-21T14:05:37;4.22;;;1.80;;
22270;SDS011;11304;53.520;10.104;2022-08-21T14:10:34;5.75;;;1.60;;
22270;SDS011;11304;53.520;10.104;2022-08-21T14:15:28;3.83;;;1.40;;
22270;SDS011;11304;53.520;10.104;2022-08-21T14:17:55;2.72;;;1.40;;
22270;SDS011;11304;53.520;10.104;2022-08-21T14:20:33;4.97;;;1.75;;
22270;SDS011;11304;53.520;10.104;2022-08-21T14:22:59;3.60;;;1.40;;
22270;SDS011;11304;53.520;10.104;2022-08-21T14:30:38;2.70;;;1.20;;
22270;SDS011;11304;53.520;10.104;2022-08-21T14:33:07;6.07;;;1.88;;
22270;SDS011;11304;53.520;10.104;2022-08-21T14:35:34;5.07;;;1.50;;
22270;SDS011;11304;53.520;10.104;2022-08-21T14:38:00;3.33;;;1.52;;
22270;SDS011;11304;53.520;10.104;2022-08-21T14:40:27;3.85;;;1.50;;
22270;SDS011;11304;53.520;10.104;2022-08-21T14:42:53;5.40;;;1.40;;
22270;SDS011;11304;53.520;10.104;2022-08-21T14:45:23;4.10;;;1.52;;
22270;SDS011;11304;53.520;10.104;2022-08-21T14:47:51;3.75;;;1.60;;
22270;SDS011;11304;53.520;10.104;2022-08-21T14:50:17;5.78;;;1.60;;
22270;SDS011;11304;53.520;10.104;2022-08-21T14:52:44;5.25;;;1.40;;
22270;SDS011;11304;53.520;10.104;2022-08-21T14:55:11;4.97;;;1.52;;
22270;SDS011;11304;53.520;10.104;2022-08-21T14:57:41;3.58;;;1.70;;
22270;SDS011;11304;53.520;10.104;2022-08-21T15:00:08;4.63;;;1.42;;
22270;SDS011;11304;53.520;10.104;2022-08-21T15:02:35;6.65;;;2.00;;
22270;SDS011;11304;53.520;10.104;2022-08-21T15:05:02;6.25;;;1.75;;
22270;SDS011;11304;53.520;10.104;2022-08-21T15:07:28;4.45;;;1.75;;
22270;SDS011;11304;53.520;10.104;2022-08-21T15:09:54;4.50;;;1.80;;
22270;SDS011;11304;53.520;10.104;2022-08-21T15:12:20;4.65;;;1.60;;
22270;SDS011;11304;53.520;10.104;2022-08-21T15:14:46;6.35;;;1.40;;
22270;SDS011;11304;53.520;10.104;2022-08-21T15:17:13;3.63;;;1.50;;
22270;SDS011;11304;53.520;10.104;2022-08-21T15:19:39;4.13;;;1.23;;
22270;SDS011;11304;53.520;10.104;2022-08-21T15:22:05;3.75;;;1.48;;
22270;SDS011;11304;53.520;10.104;2022-08-21T15:24:31;2.78;;;1.27;;
22270;SDS011;11304;53.520;10.104;2022-08-21T15:26:58;4.03;;;1.38;;
22270;SDS011;11304;53.520;10.104;2022-08-21T15:29:25;5.43;;;1.43;;
22270;SDS011;11304;53.520;10.104;2022-08-21T15:31:55;4.35;;;1.38;;
22270;SDS011;11304;53.520;10.104;2022-08-21T15:34:22;4.72;;;1.52;;
22270;SDS011;11304;53.520;10.104;2022-08-21T15:36:48;5.93;;;1.60;;
22270;SDS011;11304;53.520;10.104;2022-08-21T15:39:15;5.40;;;1.40;;
22270;SDS011;11304;53.520;10.104;2022-08-21T15:41:41;3.53;;;1.10;;
22270;SDS011;11304;53.520;10.104;2022-08-21T15:44:08;4.88;;;1.35;;
22270;SDS011;11304;53.520;10.104;2022-08-21T15:46:36;6.57;;;1.70;;
22270;SDS011;11304;53.520;10.104;2022-08-21T15:49:02;4.15;;;1.40;;
22270;SDS011;11304;53.520;10.104;2022-08-21T15:51:28;3.05;;;1.30;;
22270;SDS011;11304;53.520;10.104;2022-08-21T15:53:54;5.25;;;1.50;;
22270;SDS011;11304;53.520;10.104;2022-08-21T15:56:23;5.90;;;1.55;;
22270;SDS011;11304;53.520;10.104;2022-08-21T15:58:50;6.13;;;1.23;;
22270;SDS011;11304;53.520;10.104;2022-08-21T16:01:16;5.82;;;1.30;;
22270;SDS011;11304;53.520;10.104;2022-08-21T16:03:43;3.75;;;1.40;;
22270;SDS011;11304;53.520;10.104;2022-08-21T16:06:12;4.72;;;1.30;;
22270;SDS011;11304;53.520;10.104;2022-08-21T16:08:38;3.53;;;1.50;;
22270;SDS011;11304;53.520;10.104;2022-08-21T16:11:04;3.97;;;1.45;;
22270;SDS011;11304;53.520;10.104;2022-08-21T16:13:38;3.60;;;1.45;;